sensor_id;sensor_type;location;lat;lon;timestamp;temperature;humidity
48994;DHT22;34804;49.214;12.276;2023-04-05T00:01:56;-3274.30;84.30
48994;DHT22;34804;49.214;12.276;2023-04-05T00:04:24;-3274.30;84.10
48994;DHT22;34804;49.214;12.276;2023-04-05T00:06:51;-3274.30;83.50
48994;DHT22;34804;49.214;12.276;2023-04-05T00:09:19;-3274.20;83.90
48994;DHT22;34804;49.214;12.276;2023-04-05T00:11:47;-3274.20;83.80
48994;DHT22;34804;49.214;12.276;2023-04-05T00:14:14;-3274.20;83.70
48994;DHT22;34804;49.214;12.276;2023-04-05T00:16:41;-3274.20;83.70
48994;DHT22;34804;49.214;12.276;2023-04-05T00:19:08;-3274.20;83.80
48994;DHT22;34804;49.214;12.276;2023-04-05T00:21:38;-3274.10;84.00
48994;DHT22;34804;49.214;12.276;2023-04-05T00:24:06;-3274.00;84.30
48994;DHT22;34804;49.214;12.276;2023-04-05T00:26:34;-3273.90;84.90
48994;DHT22;34804;49.214;12.276;2023-04-05T00:29:01;-3273.80;85.40
48994;DHT22;34804;49.214;12.276;2023-04-05T00:31:28;-3273.80;85.70
48994;DHT22;34804;49.214;12.276;2023-04-05T00:33:56;-3273.90;85.50
48994;DHT22;34804;49.214;12.276;2023-04-05T00:36:23;-3273.90;85.50
48994;DHT22;34804;49.214;12.276;2023-04-05T00:38:50;-3273.90;85.00
48994;DHT22;34804;49.214;12.276;2023-04-05T00:41:17;-3274.00;84.90
48994;DHT22;34804;49.214;12.276;2023-04-05T00:43:43;-3274.00;84.30
48994;DHT22;34804;49.214;12.276;2023-04-05T00:46:11;-3274.00;84.30
48994;DHT22;34804;49.214;12.276;2023-04-05T00:48:38;-3274.00;83.90
48994;DHT22;34804;49.214;12.276;2023-04-05T00:51:05;-3274.00;83.70
48994;DHT22;34804;49.214;12.276;2023-04-05T00:53:36;-3273.90;83.80
48994;DHT22;34804;49.214;12.276;2023-04-05T00:56:03;-3274.00;83.70
48994;DHT22;34804;49.214;12.276;2023-04-05T00:58:30;-3273.90;83.80
48994;DHT22;34804;49.214;12.276;2023-04-05T01:01:09;-3273.80;84.10
48994;DHT22;34804;49.214;12.276;2023-04-05T01:03:45;-3273.80;84.40
48994;DHT22;34804;49.214;12.276;2023-04-05T01:06:20;-3273.80;84.90
48994;DHT22;34804;49.214;12.276;2023-04-05T01:09:04;-3273.90;84.80
48994;DHT22;34804;49.214;12.276;2023-04-05T01:11:32;-3273.80;84.40
48994;DHT22;34804;49.214;12.276;2023-04-05T01:14:00;-3273.80;84.20
48994;DHT22;34804;49.214;12.276;2023-04-05T01:16:28;-3273.70;84.60
48994;DHT22;34804;49.214;12.276;2023-04-05T01:18:55;-3273.70;84.60
48994;DHT22;34804;49.214;12.276;2023-04-05T01:27:06;-3273.60;85.00
48994;DHT22;34804;49.214;12.276;2023-04-05T01:30:32;-3273.50;85.20
48994;DHT22;34804;49.214;12.276;2023-04-05T01:32:53;-3273.40;85.60
48994;DHT22;34804;49.214;12.276;2023-04-05T01:37:58;-3273.40;86.20
48994;DHT22;34804;49.214;12.276;2023-04-05T01:40:26;-3273.40;85.80
48994;DHT22;34804;49.214;12.276;2023-04-05T01:42:53;-3273.40;85.50
48994;DHT22;34804;49.214;12.276;2023-04-05T01:45:20;-3273.40;85.80
48994;DHT22;34804;49.214;12.276;2023-04-05T01:47:46;-3273.40;85.40
48994;DHT22;34804;49.214;12.276;2023-04-05T01:50:13;-3273.30;85.00
48994;DHT22;34804;49.214;12.276;2023-04-05T01:52:41;-3273.30;85.20
48994;DHT22;34804;49.214;12.276;2023-04-05T01:55:07;-3273.30;85.90
48994;DHT22;34804;49.214;12.276;2023-04-05T01:57:34;-3273.20;85.60
48994;DHT22;34804;49.214;12.276;2023-04-05T02:00:01;-3273.20;85.90
48994;DHT22;34804;49.214;12.276;2023-04-05T02:02:28;-3273.20;85.70
48994;DHT22;34804;49.214;12.276;2023-04-05T02:04:55;-3273.20;85.90
48994;DHT22;34804;49.214;12.276;2023-04-05T02:07:22;-3273.10;85.70
48994;DHT22;34804;49.214;12.276;2023-04-05T02:09:49;-3273.10;85.80
48994;DHT22;34804;49.214;12.276;2023-04-05T02:12:17;-3273.10;85.90
48994;DHT22;34804;49.214;12.276;2023-04-05T02:14:43;-3273.00;86.10
48994;DHT22;34804;49.214;12.276;2023-04-05T02:17:10;-3273.00;86.20
48994;DHT22;34804;49.214;12.276;2023-04-05T02:19:38;-3273.00;86.20
48994;DHT22;34804;49.214;12.276;2023-04-05T02:22:09;-3272.90;86.20
48994;DHT22;34804;49.214;12.276;2023-04-05T02:24:35;-3272.80;86.50
48994;DHT22;34804;49.214;12.276;2023-04-05T02:27:02;-3272.80;86.60
48994;DHT22;34804;49.214;12.276;2023-04-05T02:29:29;-3272.80;86.60
48994;DHT22;34804;49.214;12.276;2023-04-05T02:31:59;-3272.80;86.30
48994;DHT22;34804;49.214;12.276;2023-04-05T02:34:25;-3272.80;86.30
48994;DHT22;34804;49.214;12.276;2023-04-05T02:36:53;-3272.80;86.40
48994;DHT22;34804;49.214;12.276;2023-04-05T02:39:19;-3272.80;86.70
48994;DHT22;34804;49.214;12.276;2023-04-05T02:41:46;-3272.80;86.30
48994;DHT22;34804;49.214;12.276;2023-04-05T02:44:13;-3272.80;86.20
48994;DHT22;34804;49.214;12.276;2023-04-05T02:46:40;-3272.80;86.50
48994;DHT22;34804;49.214;12.276;2023-04-05T02:49:07;-3272.80;86.20
48994;DHT22;34804;49.214;12.276;2023-04-05T02:51:34;-3272.80;86.40
48994;DHT22;34804;49.214;12.276;2023-04-05T02:54:02;-3272.80;86.40
48994;DHT22;34804;49.214;12.276;2023-04-05T02:56:28;-3272.80;86.60
48994;DHT22;34804;49.214;12.276;2023-04-05T02:58:55;-3272.80;86.50
48994;DHT22;34804;49.214;12.276;2023-04-05T03:01:23;-3272.70;86.40
48994;DHT22;34804;49.214;12.276;2023-04-05T03:03:50;-3272.70;86.70
48994;DHT22;34804;49.214;12.276;2023-04-05T03:06:17;-3272.70;86.40
48994;DHT22;34804;49.214;12.276;2023-04-05T03:08:46;-3272.70;86.50
48994;DHT22;34804;49.214;12.276;2023-04-05T03:11:14;-3272.60;86.60
48994;DHT22;34804;49.214;12.276;2023-04-05T03:13:41;-3272.50;86.90
48994;DHT22;34804;49.214;12.276;2023-04-05T03:16:08;-3272.50;86.70
48994;DHT22;34804;49.214;12.276;2023-04-05T03:18:35;-3272.40;87.00
48994;DHT22;34804;49.214;12.276;2023-04-05T03:21:02;-3272.40;87.40
48994;DHT22;34804;49.214;12.276;2023-04-05T03:23:30;-3272.50;87.60
48994;DHT22;34804;49.214;12.276;2023-04-05T03:25:59;-3272.50;87.10
48994;DHT22;34804;49.214;12.276;2023-04-05T03:28:28;-3272.60;87.00
48994;DHT22;34804;49.214;12.276;2023-04-05T03:30:55;-3272.60;86.70
48994;DHT22;34804;49.214;12.276;2023-04-05T03:33:22;-3272.60;86.60
48994;DHT22;34804;49.214;12.276;2023-04-05T03:35:49;-3272.50;86.50
48994;DHT22;34804;49.214;12.276;2023-04-05T03:38:16;-3272.50;86.70
48994;DHT22;34804;49.214;12.276;2023-04-05T03:40:43;-3272.50;87.00
48994;DHT22;34804;49.214;12.276;2023-04-05T03:43:10;-3272.50;87.10
48994;DHT22;34804;49.214;12.276;2023-04-05T03:45:36;-3272.50;87.00
48994;DHT22;34804;49.214;12.276;2023-04-05T03:48:05;-3272.50;86.90
48994;DHT22;34804;49.214;12.276;2023-04-05T03:50:32;-3272.50;86.70
48994;DHT22;34804;49.214;12.276;2023-04-05T03:52:59;-3272.60;86.90
48994;DHT22;34804;49.214;12.276;2023-04-05T03:55:29;-3272.60;86.30
48994;DHT22;34804;49.214;12.276;2023-04-05T03:57:56;-3272.50;85.90
48994;DHT22;34804;49.214;12.276;2023-04-05T04:00:23;-3272.50;86.30
48994;DHT22;34804;49.214;12.276;2023-04-05T04:02:50;-3272.40;86.50
48994;DHT22;34804;49.214;12.276;2023-04-05T04:05:18;-3272.40;86.40
48994;DHT22;34804;49.214;12.276;2023-04-05T04:07:47;-3272.30;86.50
48994;DHT22;34804;49.214;12.276;2023-04-05T04:10:15;-3272.30;86.70
48994;DHT22;34804;49.214;12.276;2023-04-05T04:12:45;-3272.10;86.90
48994;DHT22;34804;49.214;12.276;2023-04-05T04:15:12;-3272.10;87.20
48994;DHT22;34804;49.214;12.276;2023-04-05T04:17:38;-3272.10;87.20
48994;DHT22;34804;49.214;12.276;2023-04-05T04:20:06;-3272.10;87.30
48994;DHT22;34804;49.214;12.276;2023-04-05T04:22:37;-3272.10;87.00
48994;DHT22;34804;49.214;12.276;2023-04-05T04:25:10;-3272.10;86.70
48994;DHT22;34804;49.214;12.276;2023-04-05T04:27:40;-3272.10;86.50
48994;DHT22;34804;49.214;12.276;2023-04-05T04:30:12;-3272.10;86.50
48994;DHT22;34804;49.214;12.276;2023-04-05T04:32:41;-3272.00;86.70
48994;DHT22;34804;49.214;12.276;2023-04-05T04:35:28;-3272.00;86.90
48994;DHT22;34804;49.214;12.276;2023-04-05T04:37:57;-3272.00;87.30
48994;DHT22;34804;49.214;12.276;2023-04-05T04:40:31;-3272.00;87.30
48994;DHT22;34804;49.214;12.276;2023-04-05T04:43:08;-3272.00;87.00
48994;DHT22;34804;49.214;12.276;2023-04-05T04:45:36;-3272.00;86.90
48994;DHT22;34804;49.214;12.276;2023-04-05T04:48:03;-3272.00;86.60
48994;DHT22;34804;49.214;12.276;2023-04-05T04:50:31;-3272.00;86.80
48994;DHT22;34804;49.214;12.276;2023-04-05T04:52:59;-3272.00;86.70
48994;DHT22;34804;49.214;12.276;2023-04-05T04:55:28;-3272.00;86.60
48994;DHT22;34804;49.214;12.276;2023-04-05T04:57:55;-3272.00;86.70
48994;DHT22;34804;49.214;12.276;2023-04-05T05:00:23;-3272.00;86.50
48994;DHT22;34804;49.214;12.276;2023-04-05T05:02:51;-3272.00;86.40
48994;DHT22;34804;49.214;12.276;2023-04-05T05:05:18;-3272.10;86.50
48994;DHT22;34804;49.214;12.276;2023-04-05T05:07:48;-3272.10;86.20
48994;DHT22;34804;49.214;12.276;2023-04-05T05:10:16;-3272.20;86.30
48994;DHT22;34804;49.214;12.276;2023-04-05T05:12:43;-3272.20;86.80
48994;DHT22;34804;49.214;12.276;2023-04-05T05:15:10;-3272.10;86.40
48994;DHT22;34804;49.214;12.276;2023-04-05T05:17:37;-3272.20;86.80
48994;DHT22;34804;49.214;12.276;2023-04-05T05:20:06;-3272.20;86.50
48994;DHT22;34804;49.214;12.276;2023-04-05T05:22:37;-3272.30;86.90
48994;DHT22;34804;49.214;12.276;2023-04-05T05:25:05;-3272.40;86.40
48994;DHT22;34804;49.214;12.276;2023-04-05T05:27:32;-3272.50;86.40
48994;DHT22;34804;49.214;12.276;2023-04-05T05:29:59;-3272.60;86.40
48994;DHT22;34804;49.214;12.276;2023-04-05T05:32:27;-3272.70;86.30
48994;DHT22;34804;49.214;12.276;2023-04-05T05:34:54;-3272.70;86.10
48994;DHT22;34804;49.214;12.276;2023-04-05T05:37:28;-3272.80;86.10
48994;DHT22;34804;49.214;12.276;2023-04-05T05:39:56;-3272.80;85.90
48994;DHT22;34804;49.214;12.276;2023-04-05T05:42:23;-3272.90;86.40
48994;DHT22;34804;49.214;12.276;2023-04-05T05:44:49;-3273.00;86.70
48994;DHT22;34804;49.214;12.276;2023-04-05T05:47:16;-3273.10;86.80
48994;DHT22;34804;49.214;12.276;2023-04-05T05:49:43;-3273.10;87.00
48994;DHT22;34804;49.214;12.276;2023-04-05T05:52:10;-3273.10;87.00
48994;DHT22;34804;49.214;12.276;2023-04-05T05:54:36;-3273.20;87.20
48994;DHT22;34804;49.214;12.276;2023-04-05T05:57:03;-3273.30;87.10
48994;DHT22;34804;49.214;12.276;2023-04-05T05:59:30;-3273.40;87.00
48994;DHT22;34804;49.214;12.276;2023-04-05T06:01:57;-3273.60;87.10
48994;DHT22;34804;49.214;12.276;2023-04-05T06:04:24;-3273.60;87.20
48994;DHT22;34804;49.214;12.276;2023-04-05T06:06:51;-3273.70;86.90
48994;DHT22;34804;49.214;12.276;2023-04-05T06:09:18;-3273.80;87.10
48994;DHT22;34804;49.214;12.276;2023-04-05T06:11:44;-3273.90;86.70
48994;DHT22;34804;49.214;12.276;2023-04-05T06:14:22;-3274.00;87.10
48994;DHT22;34804;49.214;12.276;2023-04-05T06:16:49;-3274.00;86.50
48994;DHT22;34804;49.214;12.276;2023-04-05T06:19:16;-3274.10;86.90
48994;DHT22;34804;49.214;12.276;2023-04-05T06:21:43;-3274.20;87.30
48994;DHT22;34804;49.214;12.276;2023-04-05T06:24:10;-3274.30;86.90
48994;DHT22;34804;49.214;12.276;2023-04-05T06:26:36;-3274.40;86.80
48994;DHT22;34804;49.214;12.276;2023-04-05T06:29:03;-3274.70;87.30
48994;DHT22;34804;49.214;12.276;2023-04-05T06:31:32;-3274.80;86.20
48994;DHT22;34804;49.214;12.276;2023-04-05T06:33:59;-3274.90;86.40
48994;DHT22;34804;49.214;12.276;2023-04-05T06:36:29;-3275.10;86.20
48994;DHT22;34804;49.214;12.276;2023-04-05T06:38:57;-3275.10;85.90
48994;DHT22;34804;49.214;12.276;2023-04-05T06:41:25;-3275.20;85.50
48994;DHT22;34804;49.214;12.276;2023-04-05T06:43:54;-3275.40;85.70
48994;DHT22;34804;49.214;12.276;2023-04-05T06:46:22;-3275.60;85.20
48994;DHT22;34804;49.214;12.276;2023-04-05T06:48:50;-3275.80;85.10
48994;DHT22;34804;49.214;12.276;2023-04-05T06:51:18;-3275.90;83.80
48994;DHT22;34804;49.214;12.276;2023-04-05T06:53:45;-3275.90;83.90
48994;DHT22;34804;49.214;12.276;2023-04-05T06:56:12;-3275.80;84.20
48994;DHT22;34804;49.214;12.276;2023-04-05T06:58:39;-3276.10;84.10
48994;DHT22;34804;49.214;12.276;2023-04-05T07:01:06;-3276.00;83.70
48994;DHT22;34804;49.214;12.276;2023-04-05T07:03:33;-3276.00;83.60
48994;DHT22;34804;49.214;12.276;2023-04-05T07:06:00;-3276.20;84.40
48994;DHT22;34804;49.214;12.276;2023-04-05T07:08:29;-3276.30;83.20
48994;DHT22;34804;49.214;12.276;2023-04-05T07:10:57;-3276.40;82.20
48994;DHT22;34804;49.214;12.276;2023-04-05T07:13:24;-3276.40;82.20
48994;DHT22;34804;49.214;12.276;2023-04-05T07:15:51;-3276.50;81.00
48994;DHT22;34804;49.214;12.276;2023-04-05T07:18:24;-3276.70;81.00
48994;DHT22;34804;49.214;12.276;2023-04-05T07:20:51;-3276.70;79.40
48994;DHT22;34804;49.214;12.276;2023-04-05T07:23:20;0.00;77.70
48994;DHT22;34804;49.214;12.276;2023-04-05T07:25:48;0.20;79.00
48994;DHT22;34804;49.214;12.276;2023-04-05T07:28:15;0.40;76.20
48994;DHT22;34804;49.214;12.276;2023-04-05T07:30:43;0.60;75.00
48994;DHT22;34804;49.214;12.276;2023-04-05T07:33:10;0.80;76.30
48994;DHT22;34804;49.214;12.276;2023-04-05T07:35:37;0.80;75.70
48994;DHT22;34804;49.214;12.276;2023-04-05T07:38:04;0.90;75.70
48994;DHT22;34804;49.214;12.276;2023-04-05T07:40:32;1.00;74.50
48994;DHT22;34804;49.214;12.276;2023-04-05T07:43:00;0.90;76.30
48994;DHT22;34804;49.214;12.276;2023-04-05T07:45:28;1.10;77.00
48994;DHT22;34804;49.214;12.276;2023-04-05T07:47:55;1.10;76.80
48994;DHT22;34804;49.214;12.276;2023-04-05T07:50:22;1.10;75.50
48994;DHT22;34804;49.214;12.276;2023-04-05T07:52:49;1.20;74.60
48994;DHT22;34804;49.214;12.276;2023-04-05T07:55:15;1.20;74.00
48994;DHT22;34804;49.214;12.276;2023-04-05T07:57:42;1.20;74.20
48994;DHT22;34804;49.214;12.276;2023-04-05T08:00:09;1.40;75.50
48994;DHT22;34804;49.214;12.276;2023-04-05T08:02:39;1.40;73.40
48994;DHT22;34804;49.214;12.276;2023-04-05T08:05:06;1.80;75.50
48994;DHT22;34804;49.214;12.276;2023-04-05T08:07:33;2.00;73.50
48994;DHT22;34804;49.214;12.276;2023-04-05T08:10:00;2.10;72.20
48994;DHT22;34804;49.214;12.276;2023-04-05T08:12:29;2.20;72.20
48994;DHT22;34804;49.214;12.276;2023-04-05T08:14:57;2.30;70.20
48994;DHT22;34804;49.214;12.276;2023-04-05T08:17:24;2.40;70.70
48994;DHT22;34804;49.214;12.276;2023-04-05T08:19:53;2.40;69.20
48994;DHT22;34804;49.214;12.276;2023-04-05T08:22:20;2.50;68.70
48994;DHT22;34804;49.214;12.276;2023-04-05T08:24:47;2.50;67.40
48994;DHT22;34804;49.214;12.276;2023-04-05T08:27:14;2.70;64.00
48994;DHT22;34804;49.214;12.276;2023-04-05T08:29:41;2.90;66.90
48994;DHT22;34804;49.214;12.276;2023-04-05T08:32:08;3.10;64.00
48994;DHT22;34804;49.214;12.276;2023-04-05T08:34:35;3.40;62.70
48994;DHT22;34804;49.214;12.276;2023-04-05T08:37:01;3.70;56.80
48994;DHT22;34804;49.214;12.276;2023-04-05T08:39:28;3.90;55.40
48994;DHT22;34804;49.214;12.276;2023-04-05T08:42:25;4.10;51.80
48994;DHT22;34804;49.214;12.276;2023-04-05T08:44:56;4.20;52.10
48994;DHT22;34804;49.214;12.276;2023-04-05T08:47:24;4.40;52.80
48994;DHT22;34804;49.214;12.276;2023-04-05T08:49:51;4.60;55.00
48994;DHT22;34804;49.214;12.276;2023-04-05T08:52:18;4.70;51.50
48994;DHT22;34804;49.214;12.276;2023-04-05T08:54:45;4.80;50.90
48994;DHT22;34804;49.214;12.276;2023-04-05T08:57:12;4.90;51.60
48994;DHT22;34804;49.214;12.276;2023-04-05T08:59:40;4.90;48.60
48994;DHT22;34804;49.214;12.276;2023-04-05T09:02:18;4.90;49.00
48994;DHT22;34804;49.214;12.276;2023-04-05T09:04:46;5.00;49.00
48994;DHT22;34804;49.214;12.276;2023-04-05T09:07:14;5.20;49.20
48994;DHT22;34804;49.214;12.276;2023-04-05T09:09:45;5.20;46.90
48994;DHT22;34804;49.214;12.276;2023-04-05T09:12:13;5.40;49.80
48994;DHT22;34804;49.214;12.276;2023-04-05T09:14:41;5.50;48.60
48994;DHT22;34804;49.214;12.276;2023-04-05T09:17:08;5.60;49.20
48994;DHT22;34804;49.214;12.276;2023-04-05T09:19:36;5.60;47.70
48994;DHT22;34804;49.214;12.276;2023-04-05T09:22:07;5.60;47.70
48994;DHT22;34804;49.214;12.276;2023-04-05T09:24:44;5.60;48.80
48994;DHT22;34804;49.214;12.276;2023-04-05T09:27:17;5.60;45.90
48994;DHT22;34804;49.214;12.276;2023-04-05T09:29:46;5.50;46.30
48994;DHT22;34804;49.214;12.276;2023-04-05T09:32:15;5.40;47.60
48994;DHT22;34804;49.214;12.276;2023-04-05T09:34:44;5.40;47.70
48994;DHT22;34804;49.214;12.276;2023-04-05T09:37:18;5.40;46.20
48994;DHT22;34804;49.214;12.276;2023-04-05T09:39:47;5.40;46.70
48994;DHT22;34804;49.214;12.276;2023-04-05T09:42:19;5.60;47.80
48994;DHT22;34804;49.214;12.276;2023-04-05T09:47:19;5.80;48.90
48994;DHT22;34804;49.214;12.276;2023-04-05T09:49:46;6.20;47.80
48994;DHT22;34804;49.214;12.276;2023-04-05T09:52:20;6.40;45.90
48994;DHT22;34804;49.214;12.276;2023-04-05T09:54:48;6.50;45.30
48994;DHT22;34804;49.214;12.276;2023-04-05T09:57:16;6.70;47.40
48994;DHT22;34804;49.214;12.276;2023-04-05T09:59:45;6.90;47.30
48994;DHT22;34804;49.214;12.276;2023-04-05T10:02:12;6.80;44.60
48994;DHT22;34804;49.214;12.276;2023-04-05T10:04:44;6.70;42.30
48994;DHT22;34804;49.214;12.276;2023-04-05T10:07:13;6.80;48.70
48994;DHT22;34804;49.214;12.276;2023-04-05T10:09:47;6.80;45.60
48994;DHT22;34804;49.214;12.276;2023-04-05T10:12:24;6.60;43.40
48994;DHT22;34804;49.214;12.276;2023-04-05T10:14:53;6.90;46.20
48994;DHT22;34804;49.214;12.276;2023-04-05T10:17:36;6.50;40.80
48994;DHT22;34804;49.214;12.276;2023-04-05T10:20:15;6.80;44.20
48994;DHT22;34804;49.214;12.276;2023-04-05T10:27:53;6.80;42.30
48994;DHT22;34804;49.214;12.276;2023-04-05T10:30:23;6.70;43.10
48994;DHT22;34804;49.214;12.276;2023-04-05T10:40:34;8.60;46.70
48994;DHT22;34804;49.214;12.276;2023-04-05T10:43:05;9.10;42.50
48994;DHT22;34804;49.214;12.276;2023-04-05T10:45:33;9.10;44.80
48994;DHT22;34804;49.214;12.276;2023-04-05T10:50:52;8.50;40.10
48994;DHT22;34804;49.214;12.276;2023-04-05T10:53:20;8.10;40.40
48994;DHT22;34804;49.214;12.276;2023-04-05T10:55:48;8.20;41.10
48994;DHT22;34804;49.214;12.276;2023-04-05T10:58:16;7.90;41.30
48994;DHT22;34804;49.214;12.276;2023-04-05T11:00:45;7.60;40.10
48994;DHT22;34804;49.214;12.276;2023-04-05T11:03:40;7.80;43.00
48994;DHT22;34804;49.214;12.276;2023-04-05T11:11:38;7.60;45.00
48994;DHT22;34804;49.214;12.276;2023-04-05T11:14:25;7.80;41.70
48994;DHT22;34804;49.214;12.276;2023-04-05T11:16:54;7.40;40.80
48994;DHT22;34804;49.214;12.276;2023-04-05T11:22:24;7.30;40.40
48994;DHT22;34804;49.214;12.276;2023-04-05T11:29:56;7.20;45.70
48994;DHT22;34804;49.214;12.276;2023-04-05T11:33:01;7.60;44.90
48994;DHT22;34804;49.214;12.276;2023-04-05T11:35:33;7.30;38.90
48994;DHT22;34804;49.214;12.276;2023-04-05T11:40:35;7.30;41.50
48994;DHT22;34804;49.214;12.276;2023-04-05T11:43:08;7.30;39.80
48994;DHT22;34804;49.214;12.276;2023-04-05T11:45:37;6.90;41.40
48994;DHT22;34804;49.214;12.276;2023-04-05T11:50:34;6.30;41.30
48994;DHT22;34804;49.214;12.276;2023-04-05T11:53:11;6.20;41.30
48994;DHT22;34804;49.214;12.276;2023-04-05T11:55:40;6.40;43.40
48994;DHT22;34804;49.214;12.276;2023-04-05T11:58:15;6.80;47.20
48994;DHT22;34804;49.214;12.276;2023-04-05T12:00:43;6.80;41.90
48994;DHT22;34804;49.214;12.276;2023-04-05T12:03:15;7.40;40.00
48994;DHT22;34804;49.214;12.276;2023-04-05T12:05:50;8.50;43.40
48994;DHT22;34804;49.214;12.276;2023-04-05T12:08:22;9.60;43.60
48994;DHT22;34804;49.214;12.276;2023-04-05T12:10:56;9.90;38.20
48994;DHT22;34804;49.214;12.276;2023-04-05T12:13:27;10.70;41.70
48994;DHT22;34804;49.214;12.276;2023-04-05T12:16:05;11.40;39.40
48994;DHT22;34804;49.214;12.276;2023-04-05T12:18:35;11.70;39.00
48994;DHT22;34804;49.214;12.276;2023-04-05T12:21:07;10.90;34.80
48994;DHT22;34804;49.214;12.276;2023-04-05T12:23:36;10.20;36.80
48994;DHT22;34804;49.214;12.276;2023-04-05T12:26:05;8.80;39.30
48994;DHT22;34804;49.214;12.276;2023-04-05T12:28:55;8.40;40.60
48994;DHT22;34804;49.214;12.276;2023-04-05T12:31:45;8.10;41.20
48994;DHT22;34804;49.214;12.276;2023-04-05T12:34:13;7.80;40.40
48994;DHT22;34804;49.214;12.276;2023-04-05T12:36:44;7.70;39.40
48994;DHT22;34804;49.214;12.276;2023-04-05T12:39:15;8.20;40.50
48994;DHT22;34804;49.214;12.276;2023-04-05T12:41:42;8.50;40.30
48994;DHT22;34804;49.214;12.276;2023-04-05T12:44:15;8.20;39.30
48994;DHT22;34804;49.214;12.276;2023-04-05T12:46:46;8.00;42.70
48994;DHT22;34804;49.214;12.276;2023-04-05T12:49:17;7.80;40.40
48994;DHT22;34804;49.214;12.276;2023-04-05T12:51:46;7.80;42.00
48994;DHT22;34804;49.214;12.276;2023-04-05T12:54:14;8.30;41.60
48994;DHT22;34804;49.214;12.276;2023-04-05T12:56:46;10.10;36.40
48994;DHT22;34804;49.214;12.276;2023-04-05T12:59:15;11.70;36.50
48994;DHT22;34804;49.214;12.276;2023-04-05T13:01:42;12.30;32.70
48994;DHT22;34804;49.214;12.276;2023-04-05T13:04:09;12.80;35.40
48994;DHT22;34804;49.214;12.276;2023-04-05T13:06:39;13.90;28.70
48994;DHT22;34804;49.214;12.276;2023-04-05T13:09:06;13.30;30.10
48994;DHT22;34804;49.214;12.276;2023-04-05T13:11:33;14.40;29.60
48994;DHT22;34804;49.214;12.276;2023-04-05T13:14:00;13.90;28.80
48994;DHT22;34804;49.214;12.276;2023-04-05T13:16:28;14.60;27.20
48994;DHT22;34804;49.214;12.276;2023-04-05T13:18:55;14.40;29.30
48994;DHT22;34804;49.214;12.276;2023-04-05T13:21:22;14.90;31.80
48994;DHT22;34804;49.214;12.276;2023-04-05T13:23:49;14.40;31.20
48994;DHT22;34804;49.214;12.276;2023-04-05T13:26:16;15.30;31.20
48994;DHT22;34804;49.214;12.276;2023-04-05T13:28:43;16.30;29.70
48994;DHT22;34804;49.214;12.276;2023-04-05T13:31:10;15.00;29.70
48994;DHT22;34804;49.214;12.276;2023-04-05T13:33:39;14.20;30.90
48994;DHT22;34804;49.214;12.276;2023-04-05T13:36:06;14.50;31.60
48994;DHT22;34804;49.214;12.276;2023-04-05T13:38:33;14.60;31.40
48994;DHT22;34804;49.214;12.276;2023-04-05T13:41:00;13.80;30.10
48994;DHT22;34804;49.214;12.276;2023-04-05T13:43:27;11.80;35.10
48994;DHT22;34804;49.214;12.276;2023-04-05T13:45:57;12.80;34.20
48994;DHT22;34804;49.214;12.276;2023-04-05T13:48:23;14.20;31.00
48994;DHT22;34804;49.214;12.276;2023-04-05T13:50:50;16.00;30.80
48994;DHT22;34804;49.214;12.276;2023-04-05T13:53:17;17.70;27.50
48994;DHT22;34804;49.214;12.276;2023-04-05T13:55:44;17.30;24.90
48994;DHT22;34804;49.214;12.276;2023-04-05T13:58:11;17.60;25.90
48994;DHT22;34804;49.214;12.276;2023-04-05T14:00:39;16.40;27.00
48994;DHT22;34804;49.214;12.276;2023-04-05T14:03:07;15.80;27.10
48994;DHT22;34804;49.214;12.276;2023-04-05T14:05:34;15.90;27.00
48994;DHT22;34804;49.214;12.276;2023-04-05T14:08:01;15.20;26.50
48994;DHT22;34804;49.214;12.276;2023-04-05T14:10:30;15.10;27.50
48994;DHT22;34804;49.214;12.276;2023-04-05T14:12:57;15.00;29.10
48994;DHT22;34804;49.214;12.276;2023-04-05T14:15:24;16.50;27.40
48994;DHT22;34804;49.214;12.276;2023-04-05T14:17:51;16.30;27.10
48994;DHT22;34804;49.214;12.276;2023-04-05T14:20:18;16.40;24.80
48994;DHT22;34804;49.214;12.276;2023-04-05T14:22:45;16.20;27.20
48994;DHT22;34804;49.214;12.276;2023-04-05T14:25:12;15.90;30.20
48994;DHT22;34804;49.214;12.276;2023-04-05T14:27:39;16.90;26.70
48994;DHT22;34804;49.214;12.276;2023-04-05T14:30:08;17.30;27.60
48994;DHT22;34804;49.214;12.276;2023-04-05T14:32:37;16.70;27.00
48994;DHT22;34804;49.214;12.276;2023-04-05T14:35:04;16.30;27.30
48994;DHT22;34804;49.214;12.276;2023-04-05T14:37:31;16.10;28.90
48994;DHT22;34804;49.214;12.276;2023-04-05T14:39:57;16.00;28.00
48994;DHT22;34804;49.214;12.276;2023-04-05T14:42:24;15.50;27.90
48994;DHT22;34804;49.214;12.276;2023-04-05T14:45:03;15.30;27.50
48994;DHT22;34804;49.214;12.276;2023-04-05T14:47:30;15.10;28.50
48994;DHT22;34804;49.214;12.276;2023-04-05T14:49:57;15.80;27.60
48994;DHT22;34804;49.214;12.276;2023-04-05T14:52:24;16.10;28.00
48994;DHT22;34804;49.214;12.276;2023-04-05T14:54:50;15.30;28.80
48994;DHT22;34804;49.214;12.276;2023-04-05T14:57:18;15.40;28.00
48994;DHT22;34804;49.214;12.276;2023-04-05T14:59:45;15.40;27.80
48994;DHT22;34804;49.214;12.276;2023-04-05T15:02:11;15.30;27.30
48994;DHT22;34804;49.214;12.276;2023-04-05T15:04:38;15.30;28.40
48994;DHT22;34804;49.214;12.276;2023-04-05T15:07:07;14.90;28.10
48994;DHT22;34804;49.214;12.276;2023-04-05T15:09:34;14.70;28.30
48994;DHT22;34804;49.214;12.276;2023-04-05T15:12:01;15.00;27.10
48994;DHT22;34804;49.214;12.276;2023-04-05T15:14:28;15.40;28.40
48994;DHT22;34804;49.214;12.276;2023-04-05T15:16:58;15.40;27.20
48994;DHT22;34804;49.214;12.276;2023-04-05T15:19:25;15.80;27.00
48994;DHT22;34804;49.214;12.276;2023-04-05T15:21:53;15.80;26.00
48994;DHT22;34804;49.214;12.276;2023-04-05T15:24:19;15.70;28.70
48994;DHT22;34804;49.214;12.276;2023-04-05T15:26:49;16.50;25.50
48994;DHT22;34804;49.214;12.276;2023-04-05T15:29:16;16.10;26.70
48994;DHT22;34804;49.214;12.276;2023-04-05T15:31:43;15.90;25.30
48994;DHT22;34804;49.214;12.276;2023-04-05T15:34:10;15.60;25.90
48994;DHT22;34804;49.214;12.276;2023-04-05T15:36:37;15.90;25.80
48994;DHT22;34804;49.214;12.276;2023-04-05T15:39:03;15.80;27.70
48994;DHT22;34804;49.214;12.276;2023-04-05T15:41:32;15.40;26.40
48994;DHT22;34804;49.214;12.276;2023-04-05T15:43:59;15.50;26.40
48994;DHT22;34804;49.214;12.276;2023-04-05T15:46:26;15.60;26.20
48994;DHT22;34804;49.214;12.276;2023-04-05T15:48:54;15.30;28.70
48994;DHT22;34804;49.214;12.276;2023-04-05T15:51:22;15.10;28.30
48994;DHT22;34804;49.214;12.276;2023-04-05T15:53:50;14.60;29.70
48994;DHT22;34804;49.214;12.276;2023-04-05T15:56:17;14.30;29.70